createdAt,value
2023-03-21T00:03:42.804Z,8.20
2023-03-21T00:08:48.094Z,8.20
2023-03-21T00:13:53.559Z,8.20
2023-03-21T00:18:59.044Z,8.20
2023-03-21T00:24:04.710Z,8.10
2023-03-21T00:29:10.048Z,8.10
2023-03-21T00:34:20.032Z,8.10
2023-03-21T00:39:23.254Z,8.10
2023-03-21T00:44:28.832Z,8.10
2023-03-21T00:49:34.711Z,8.10
2023-03-21T00:54:39.931Z,8.10
2023-03-21T00:59:45.154Z,8.00
2023-03-21T01:04:51.040Z,8.00
2023-03-21T01:09:56.265Z,8.00
2023-03-21T01:15:01.600Z,8.00
2023-03-21T01:20:07.176Z,8.00
2023-03-21T01:25:22.233Z,8.00
2023-03-21T01:30:23.008Z,8.00
2023-03-21T01:35:27.015Z,7.90
2023-03-21T01:40:34.398Z,7.90
2023-03-21T01:46:08.855Z,7.90
2023-03-21T01:51:14.897Z,7.90
2023-03-21T01:56:25.694Z,7.90
2023-03-21T02:01:35.345Z,7.80
2023-03-21T02:06:49.545Z,7.80
2023-03-21T02:11:56.178Z,7.80
2023-03-21T02:17:19.406Z,7.80
2023-03-21T02:22:27.661Z,7.80
2023-03-21T02:27:36.539Z,7.80
2023-03-21T02:32:53.575Z,7.80
2023-03-21T02:38:08.641Z,7.80
2023-03-21T02:43:36.365Z,7.80
2023-03-21T02:48:50.941Z,7.80
2023-03-21T02:54:28.226Z,7.80
2023-03-21T02:59:11.388Z,7.70
2023-03-21T03:04:26.842Z,7.70
2023-03-21T03:09:40.748Z,7.60
2023-03-21T03:15:02.705Z,7.60
2023-03-21T03:20:15.644Z,7.60
2023-03-21T03:25:23.206Z,7.50
2023-03-21T03:30:27.337Z,7.50
2023-03-21T03:35:31.746Z,7.50
2023-03-21T03:40:49.028Z,7.50
2023-03-21T03:46:00.005Z,7.50
2023-03-21T03:51:17.579Z,7.50
2023-03-21T03:56:25.837Z,7.40
2023-03-21T04:01:31.168Z,7.40
2023-03-21T04:06:36.517Z,7.40
2023-03-21T04:11:41.794Z,7.40
2023-03-21T04:16:47.556Z,7.40
2023-03-21T04:21:53.516Z,7.40
2023-03-21T04:26:58.840Z,7.30
2023-03-21T04:32:04.118Z,7.30
2023-03-21T04:37:11.130Z,7.40
2023-03-21T04:42:21.734Z,7.30
2023-03-21T04:47:27.203Z,7.30
2023-03-21T04:52:32.516Z,7.30
2023-03-21T04:57:38.900Z,7.30
2023-03-21T05:02:44.250Z,7.30
2023-03-21T05:07:50.677Z,7.30
2023-03-21T05:12:56.046Z,7.30
2023-03-21T05:18:02.995Z,7.30
2023-03-21T05:23:09.866Z,7.30
2023-03-21T05:28:18.464Z,7.30
2023-03-21T05:33:23.881Z,7.30
2023-03-21T05:38:29.101Z,7.40
2023-03-21T05:43:34.900Z,7.40
2023-03-21T05:48:40.189Z,7.50
2023-03-21T05:53:45.593Z,7.50
2023-03-21T05:58:50.889Z,7.60
2023-03-21T06:03:56.409Z,7.60
2023-03-21T06:09:01.783Z,7.70
2023-03-21T06:14:07.008Z,7.70
2023-03-21T06:19:12.829Z,7.70
2023-03-21T06:24:19.251Z,7.80
2023-03-21T06:29:24.664Z,7.80
2023-03-21T06:34:30.153Z,7.90
2023-03-21T06:39:43.011Z,7.90
2023-03-21T06:44:49.247Z,7.90
2023-03-21T06:49:54.389Z,8.00
2023-03-21T06:54:59.649Z,8.00
2023-03-21T07:00:05.935Z,8.00
2023-03-21T07:05:11.293Z,8.20
2023-03-21T07:10:16.653Z,8.30
2023-03-21T07:15:22.030Z,8.50
2023-03-21T07:20:27.470Z,8.80
2023-03-21T07:25:32.841Z,9.30
2023-03-21T07:30:38.183Z,10.00
2023-03-21T07:35:43.576Z,11.00
2023-03-21T07:40:49.984Z,11.90
2023-03-21T07:46:00.493Z,12.40
2023-03-21T07:51:06.779Z,13.10
2023-03-21T07:56:12.118Z,13.80
2023-03-21T08:01:18.547Z,13.80
2023-03-21T08:06:25.960Z,13.70
2023-03-21T08:11:32.231Z,13.50
2023-03-21T08:16:38.254Z,13.30
2023-03-21T08:21:43.570Z,13.40
2023-03-21T08:26:48.792Z,12.80
2023-03-21T08:31:54.288Z,12.40
2023-03-21T08:36:59.397Z,12.10
2023-03-21T08:42:05.941Z,11.80
2023-03-21T08:47:11.205Z,11.70
2023-03-21T08:52:16.564Z,11.20
2023-03-21T08:57:23.277Z,10.90
2023-03-21T09:02:28.668Z,10.80
2023-03-21T09:07:36.365Z,11.20
2023-03-21T09:12:41.671Z,11.30
2023-03-21T09:17:48.596Z,11.50
2023-03-21T09:22:54.580Z,11.80
2023-03-21T09:28:02.626Z,11.80
2023-03-21T09:33:09.825Z,12.40
2023-03-21T09:38:15.658Z,12.40
2023-03-21T09:43:52.684Z,12.00
2023-03-21T09:49:14.747Z,11.70
2023-03-21T09:54:38.293Z,11.50
2023-03-21T09:59:53.685Z,12.20
2023-03-21T10:05:01.108Z,13.20
2023-03-21T10:10:07.665Z,12.90
2023-03-21T10:15:16.024Z,12.80
2023-03-21T10:20:30.372Z,12.40
2023-03-21T10:25:41.483Z,12.10
2023-03-21T10:30:59.159Z,11.90
2023-03-21T10:36:13.782Z,12.00
2023-03-21T10:41:20.892Z,12.00
2023-03-21T10:46:28.010Z,12.20
2023-03-21T10:51:39.332Z,12.80
2023-03-21T10:56:50.769Z,14.20
2023-03-21T11:01:58.102Z,14.00
2023-03-21T11:07:09.339Z,13.70
2023-03-21T11:12:17.114Z,14.00
2023-03-21T11:17:25.676Z,13.70
2023-03-21T11:22:33.651Z,13.40
2023-03-21T11:27:40.798Z,13.30
2023-03-21T11:32:46.582Z,14.10
2023-03-21T11:37:54.789Z,15.00
2023-03-21T11:43:05.573Z,15.80
2023-03-21T11:48:14.289Z,16.70
2023-03-21T11:53:31.742Z,16.70
2023-03-21T11:59:04.100Z,16.60
2023-03-21T12:04:48.109Z,16.00
2023-03-21T12:10:14.441Z,16.20
2023-03-21T12:15:22.725Z,16.50
2023-03-21T12:20:58.338Z,16.40
2023-03-21T12:26:24.820Z,16.30
2023-03-21T12:31:55.877Z,15.20
2023-03-21T12:37:23.484Z,14.50
2023-03-21T12:42:40.562Z,14.40
2023-03-21T12:47:51.628Z,14.00
2023-03-21T12:52:59.986Z,14.00
2023-03-21T12:58:14.086Z,14.50
2023-03-21T13:03:45.087Z,14.60
2023-03-21T13:08:58.994Z,13.80
2023-03-21T13:14:17.707Z,13.50
2023-03-21T13:19:44.329Z,13.20
2023-03-21T13:25:01.506Z,12.90
2023-03-21T13:30:22.923Z,12.80
2023-03-21T13:35:39.060Z,12.80
2023-03-21T13:40:53.155Z,13.00
2023-03-21T13:46:04.280Z,13.20
2023-03-21T13:51:12.044Z,13.30
2023-03-21T13:56:20.733Z,13.50
2023-03-21T14:01:43.294Z,13.40
2023-03-21T14:07:03.830Z,13.40
2023-03-21T14:12:33.509Z,13.30
2023-03-21T14:17:36.981Z,13.60
2023-03-21T14:22:44.537Z,13.40
2023-03-21T14:27:54.202Z,13.40
2023-03-21T14:33:02.342Z,13.20
2023-03-21T14:38:09.511Z,13.20
2023-03-21T14:43:14.797Z,13.20
2023-03-21T14:48:20.603Z,13.40
2023-03-21T14:53:34.322Z,13.60
2023-03-21T14:58:42.176Z,13.40
2023-03-21T15:03:48.627Z,13.30
2023-03-21T15:09:00.251Z,13.20
2023-03-21T15:14:08.486Z,12.90
2023-03-21T15:19:16.791Z,12.60
2023-03-21T15:24:27.624Z,12.50
2023-03-21T15:29:37.062Z,12.50
2023-03-21T15:34:42.678Z,12.50
2023-03-21T15:39:49.365Z,12.60
2023-03-21T15:44:57.430Z,12.50
2023-03-21T15:50:05.641Z,12.60
2023-03-21T15:55:28.796Z,12.60
2023-03-21T16:00:42.874Z,12.40
2023-03-21T16:06:08.350Z,12.10
2023-03-21T16:11:28.541Z,11.90
2023-03-21T16:16:34.030Z,11.70
2023-03-21T16:21:39.423Z,11.60
2023-03-21T16:26:49.878Z,11.40
2023-03-21T16:31:55.697Z,11.20
2023-03-21T16:37:01.293Z,10.90
2023-03-21T16:42:06.957Z,10.70
2023-03-21T16:47:20.897Z,10.40
2023-03-21T16:52:26.660Z,10.20
2023-03-21T16:57:32.117Z,10.00
2023-03-21T17:02:37.885Z,9.80
2023-03-21T17:07:45.523Z,9.70
2023-03-21T17:12:51.130Z,9.50
2023-03-21T17:17:56.542Z,9.40
2023-03-21T17:23:01.954Z,9.30
2023-03-21T17:28:07.253Z,9.20
2023-03-21T17:33:12.531Z,9.20
2023-03-21T17:38:18.636Z,9.10
2023-03-21T17:43:23.932Z,9.00
2023-03-21T17:48:30.175Z,8.80
2023-03-21T17:53:35.619Z,8.70
2023-03-21T17:58:40.745Z,8.50
2023-03-21T18:03:46.236Z,8.40
2023-03-21T18:08:54.740Z,8.30
2023-03-21T18:14:14.341Z,8.20
2023-03-21T18:19:07.175Z,8.10
2023-03-21T18:24:12.443Z,8.10
2023-03-21T18:34:26.270Z,7.80
2023-03-21T18:39:31.710Z,7.60
2023-03-21T18:44:37.458Z,7.70
2023-03-21T18:54:50.373Z,7.80
2023-03-21T18:59:55.703Z,7.80
2023-03-21T19:05:01.452Z,7.90
2023-03-21T19:10:17.622Z,7.90
2023-03-21T19:15:17.526Z,8.00
2023-03-21T19:20:22.835Z,8.00
2023-03-21T19:25:28.195Z,8.10
2023-03-21T19:30:37.195Z,8.10
2023-03-21T19:35:44.673Z,8.00
2023-03-21T19:40:52.588Z,8.00
2023-03-21T19:46:00.082Z,8.00
2023-03-21T19:51:26.984Z,8.00
2023-03-21T19:56:22.382Z,8.00
2023-03-21T20:01:22.245Z,8.00
2023-03-21T20:06:27.740Z,8.10
2023-03-21T20:11:33.672Z,8.10
2023-03-21T20:16:43.096Z,7.90
2023-03-21T20:21:52.255Z,7.90
2023-03-21T20:26:53.855Z,7.90
2023-03-21T20:31:59.014Z,7.90
2023-03-21T20:37:06.280Z,8.00
2023-03-21T20:42:11.752Z,8.00
2023-03-21T20:47:17.058Z,7.90
2023-03-21T20:57:29.145Z,7.90
2023-03-21T21:02:34.373Z,7.90
2023-03-21T21:07:40.819Z,7.70
2023-03-21T21:12:46.761Z,7.70
2023-03-21T21:18:08.688Z,7.70
2023-03-21T21:23:00.914Z,7.70
2023-03-21T21:28:08.257Z,7.70
2023-03-21T21:33:22.236Z,7.70
2023-03-21T21:38:29.322Z,7.60
2023-03-21T21:43:34.446Z,7.60
2023-03-21T21:48:41.839Z,7.50
2023-03-21T21:53:48.499Z,7.50
2023-03-21T21:58:54.669Z,7.40
2023-03-21T22:04:01.469Z,7.40
2023-03-21T22:09:07.092Z,7.30
2023-03-21T22:14:12.356Z,7.20
2023-03-21T22:19:17.457Z,7.10
2023-03-21T22:24:22.601Z,6.90
2023-03-21T22:29:28.255Z,6.80
2023-03-21T22:34:33.451Z,6.80
2023-03-21T22:39:38.551Z,6.70
2023-03-21T22:44:43.701Z,6.70
2023-03-21T22:49:48.882Z,6.90
2023-03-21T22:54:53.997Z,6.90
2023-03-21T22:59:59.100Z,6.90
2023-03-21T23:05:04.515Z,7.00
2023-03-21T23:10:12.223Z,7.10
2023-03-21T23:15:17.466Z,7.10
2023-03-21T23:20:22.682Z,7.10
2023-03-21T23:25:29.071Z,7.20
2023-03-21T23:30:34.455Z,7.30
2023-03-21T23:35:39.601Z,7.40
2023-03-21T23:40:44.759Z,7.40
2023-03-21T23:45:51.799Z,7.40
2023-03-21T23:50:57.198Z,7.40
2023-03-21T23:56:02.460Z,7.40
